createdAt,value
2023-01-11T00:01:30.815Z,64.37
2023-01-11T00:03:58.976Z,64.53
2023-01-11T00:06:25.812Z,64.80
2023-01-11T00:08:55.785Z,65.42
2023-01-11T00:11:23.213Z,65.33
2023-01-11T00:13:51.691Z,65.81
2023-01-11T00:16:19.814Z,65.76
2023-01-11T00:18:46.643Z,65.91
2023-01-11T00:21:14.511Z,65.46
2023-01-11T00:23:41.283Z,65.87
2023-01-11T00:26:13.175Z,65.83
2023-01-11T00:28:41.684Z,66.13
2023-01-11T00:31:09.234Z,67.04
2023-01-11T00:33:36.062Z,66.80
2023-01-11T00:36:03.090Z,67.15
2023-01-11T00:38:31.931Z,67.22
2023-01-11T00:40:58.752Z,67.80
2023-01-11T00:43:25.495Z,68.03
2023-01-11T00:45:52.308Z,68.15
2023-01-11T00:48:19.415Z,68.95
2023-01-11T00:50:47.265Z,68.95
2023-01-11T00:53:14.052Z,69.45
2023-01-11T00:55:43.807Z,69.89
2023-01-11T00:58:11.159Z,70.02
2023-01-11T01:00:38.451Z,70.10
2023-01-11T01:03:06.320Z,70.54
2023-01-11T01:05:33.053Z,70.73
2023-01-11T01:08:01.103Z,71.35
2023-01-11T01:10:31.758Z,71.20
2023-01-11T01:13:00.112Z,71.63
2023-01-11T01:15:26.944Z,71.52
2023-01-11T01:17:55.241Z,71.68
2023-01-11T01:20:23.654Z,72.07
2023-01-11T01:22:50.589Z,71.67
2023-01-11T01:25:18.637Z,72.53
2023-01-11T01:27:45.386Z,72.63
2023-01-11T01:30:14.358Z,72.22
2023-01-11T01:32:41.184Z,72.17
2023-01-11T01:35:09.611Z,72.34
2023-01-11T01:37:37.681Z,72.61
2023-01-11T01:40:05.261Z,72.15
2023-01-11T01:42:32.107Z,72.97
2023-01-11T01:45:25.670Z,72.79
2023-01-11T01:48:00.473Z,72.58
2023-01-11T01:50:37.888Z,73.27
2023-01-11T01:53:14.365Z,72.83
2023-01-11T01:59:10.438Z,73.75
2023-01-11T02:01:39.415Z,74.14
2023-01-11T02:04:11.848Z,73.65
2023-01-11T02:06:41.639Z,73.93
2023-01-11T02:09:23.763Z,73.67
2023-01-11T02:11:53.949Z,75.17
2023-01-11T02:14:21.628Z,74.98
2023-01-11T02:16:51.736Z,74.51
2023-01-11T02:19:35.664Z,74.57
2023-01-11T02:22:25.811Z,74.89
2023-01-11T02:25:10.976Z,75.15
2023-01-11T02:28:02.786Z,75.85
2023-01-11T02:30:57.689Z,76.78
2023-01-11T02:33:54.852Z,76.75
2023-01-11T02:36:41.237Z,76.87
2023-01-11T02:39:45.781Z,76.92
2023-01-11T02:42:37.363Z,77.29
2023-01-11T02:45:16.794Z,77.63
2023-01-11T02:48:22.352Z,77.64
2023-01-11T02:51:05.675Z,78.74
2023-01-11T02:53:48.059Z,77.90
2023-01-11T02:56:21.138Z,78.32
2023-01-11T02:58:51.387Z,78.73
2023-01-11T03:01:19.642Z,78.45
2023-01-11T03:03:47.771Z,79.16
2023-01-11T03:06:21.070Z,79.56
2023-01-11T03:09:10.672Z,79.88
2023-01-11T03:11:55.806Z,81.03
2023-01-11T03:18:41.782Z,80.36
2023-01-11T03:21:28.519Z,81.01
2023-01-11T03:24:26.502Z,80.80
2023-01-11T03:27:17.727Z,80.80
2023-01-11T03:30:11.858Z,80.27
2023-01-11T03:32:48.517Z,79.58
2023-01-11T03:41:43.610Z,79.38
2023-01-11T03:44:16.958Z,78.75
2023-01-11T03:46:51.783Z,78.47
2023-01-11T03:49:25.658Z,78.47
2023-01-11T03:51:55.725Z,78.31
2023-01-11T03:54:26.450Z,78.94
2023-01-11T03:57:10.636Z,78.46
2023-01-11T03:59:39.413Z,78.78
2023-01-11T04:02:19.079Z,79.12
2023-01-11T04:04:46.617Z,79.19
2023-01-11T04:07:15.229Z,80.28
2023-01-11T04:09:42.782Z,80.70
2023-01-11T04:12:11.385Z,80.50
2023-01-11T04:14:41.793Z,80.43
2023-01-11T04:17:10.183Z,80.54
2023-01-11T04:20:01.897Z,80.52
2023-01-11T04:22:29.803Z,81.49
2023-01-11T04:24:56.443Z,82.09
2023-01-11T04:27:23.811Z,81.05
2023-01-11T04:29:50.541Z,81.87
2023-01-11T04:32:17.712Z,81.40
2023-01-11T04:34:45.216Z,81.13
2023-01-11T04:37:12.164Z,80.30
2023-01-11T04:39:39.062Z,82.10
2023-01-11T04:42:06.838Z,81.91
2023-01-11T04:44:34.218Z,81.60
2023-01-11T04:47:00.942Z,81.60
2023-01-11T04:49:28.284Z,81.26
2023-01-11T04:51:56.018Z,82.16
2023-01-11T04:54:24.817Z,83.53
2023-01-11T04:56:51.675Z,84.20
2023-01-11T04:59:18.418Z,84.21
2023-01-11T05:01:45.603Z,84.74
2023-01-11T05:04:13.593Z,84.90
2023-01-11T05:06:42.289Z,84.24
2023-01-11T05:09:15.963Z,84.48
2023-01-11T05:11:45.928Z,84.14
2023-01-11T05:14:13.570Z,84.89
2023-01-11T05:16:41.259Z,84.82
2023-01-11T05:19:11.822Z,83.42
2023-01-11T05:21:41.342Z,82.34
2023-01-11T05:24:12.979Z,84.35
2023-01-11T05:26:42.435Z,85.60
2023-01-11T05:29:16.833Z,86.51
2023-01-11T05:31:43.888Z,86.35
2023-01-11T05:34:12.999Z,87.14
2023-01-11T05:36:42.456Z,86.11
2023-01-11T05:39:10.681Z,86.16
2023-01-11T05:41:37.618Z,86.36
2023-01-11T05:44:04.831Z,85.79
2023-01-11T05:46:33.503Z,85.53
2023-01-11T05:49:01.975Z,86.14
2023-01-11T05:51:53.936Z,84.86
2023-01-11T05:54:23.009Z,85.12
2023-01-11T05:56:49.756Z,84.34
2023-01-11T05:59:16.573Z,85.00
2023-01-11T06:01:43.555Z,85.87
2023-01-11T06:04:11.310Z,85.59
2023-01-11T06:09:31.462Z,87.06
2023-01-11T06:11:58.231Z,87.50
2023-01-11T06:14:25.094Z,87.31
2023-01-11T06:22:59.977Z,85.75
2023-01-11T06:25:28.266Z,86.12
2023-01-11T06:27:59.679Z,85.25
2023-01-11T06:30:28.178Z,85.38
2023-01-11T06:32:55.034Z,86.05
2023-01-11T06:35:22.281Z,86.82
2023-01-11T06:37:50.888Z,87.54
2023-01-11T06:40:17.726Z,88.60
2023-01-11T06:42:46.278Z,88.48
2023-01-11T06:45:15.945Z,88.65
2023-01-11T06:47:42.780Z,89.13
2023-01-11T06:50:10.307Z,89.83
2023-01-11T06:52:37.938Z,89.38
2023-01-11T06:55:05.335Z,88.14
2023-01-11T06:57:32.057Z,88.24
2023-01-11T06:59:58.959Z,89.35
2023-01-11T07:02:25.735Z,89.98
2023-01-11T07:04:56.296Z,89.76
2023-01-11T07:07:23.134Z,88.64
2023-01-11T07:09:49.917Z,89.28
2023-01-11T07:12:16.627Z,89.13
2023-01-11T07:17:36.550Z,88.16
2023-01-11T07:20:04.669Z,88.76
2023-01-11T07:22:34.816Z,89.15
2023-01-11T07:25:03.861Z,89.05
2023-01-11T07:27:30.775Z,88.16
2023-01-11T07:29:57.713Z,87.75
2023-01-11T07:32:24.990Z,88.24
2023-01-11T07:34:51.685Z,88.17
2023-01-11T07:37:28.346Z,89.01
2023-01-11T07:39:56.178Z,89.38
2023-01-11T07:42:22.950Z,88.89
2023-01-11T07:44:50.409Z,87.71
2023-01-11T07:47:17.179Z,86.91
2023-01-11T07:52:30.536Z,85.82
2023-01-11T07:54:57.253Z,87.07
2023-01-11T07:57:25.369Z,87.19
2023-01-11T07:59:52.177Z,85.28
2023-01-11T08:02:43.710Z,85.72
2023-01-11T08:05:10.762Z,85.21
2023-01-11T08:07:37.501Z,84.17
2023-01-11T08:10:09.171Z,84.16
2023-01-11T08:12:51.664Z,83.71
2023-01-11T08:15:18.583Z,83.46
2023-01-11T08:17:45.374Z,83.22
2023-01-11T08:20:13.412Z,82.94
2023-01-11T08:22:40.286Z,82.32
2023-01-11T08:25:07.965Z,81.79
2023-01-11T08:27:35.411Z,82.02
2023-01-11T08:30:02.123Z,81.99
2023-01-11T08:32:30.031Z,82.50
2023-01-11T08:34:56.783Z,82.63
2023-01-11T08:37:25.055Z,82.24
2023-01-11T08:39:51.826Z,81.35
2023-01-11T08:42:20.407Z,81.03
2023-01-11T08:44:47.929Z,80.88
2023-01-11T08:47:15.396Z,80.42
2023-01-11T08:49:43.019Z,79.80
2023-01-11T08:52:13.841Z,80.68
2023-01-11T08:54:41.868Z,80.65
2023-01-11T08:57:09.072Z,80.77
2023-01-11T08:59:37.333Z,80.19
2023-01-11T09:02:05.953Z,79.75
2023-01-11T09:04:32.972Z,80.19
2023-01-11T09:07:00.361Z,80.05
2023-01-11T09:09:51.875Z,80.52
2023-01-11T09:12:22.298Z,78.93
2023-01-11T09:14:49.366Z,78.32
2023-01-11T09:17:16.953Z,78.25
2023-01-11T09:19:44.182Z,77.94
2023-01-11T09:22:11.908Z,77.68
2023-01-11T09:24:38.759Z,79.03
2023-01-11T09:27:05.639Z,78.46
2023-01-11T09:29:34.968Z,78.39
2023-01-11T09:32:03.386Z,78.47
2023-01-11T09:34:30.088Z,77.41
2023-01-11T09:36:57.938Z,76.86
2023-01-11T09:39:24.744Z,77.52
2023-01-11T09:42:22.889Z,77.39
2023-01-11T09:44:56.166Z,77.29
2023-01-11T09:47:29.299Z,76.50
2023-01-11T09:50:00.443Z,76.66
2023-01-11T09:52:35.895Z,75.82
2023-01-11T09:55:04.119Z,76.07
2023-01-11T09:57:58.019Z,75.77
2023-01-11T10:00:50.721Z,75.06
2023-01-11T10:03:51.896Z,74.50
2023-01-11T10:06:32.786Z,73.55
2023-01-11T10:18:29.666Z,74.39
2023-01-11T10:24:29.799Z,73.14
2023-01-11T10:27:04.941Z,72.76
2023-01-11T10:29:40.569Z,71.98
2023-01-11T10:32:33.848Z,72.32
2023-01-11T10:35:36.912Z,72.60
2023-01-11T10:38:10.863Z,72.96
2023-01-11T10:40:48.506Z,72.11
2023-01-11T10:43:19.912Z,72.39
2023-01-11T10:45:54.333Z,72.54
2023-01-11T10:48:40.881Z,72.17
2023-01-11T10:51:19.637Z,70.91
2023-01-11T10:53:59.012Z,69.29
2023-01-11T10:57:08.042Z,69.80
2023-01-11T11:00:01.759Z,69.21
2023-01-11T11:02:49.850Z,69.15
2023-01-11T11:05:44.748Z,68.88
2023-01-11T11:08:18.409Z,67.97
2023-01-11T11:11:05.593Z,68.75
2023-01-11T11:14:01.100Z,69.46
2023-01-11T11:16:44.945Z,68.83
2023-01-11T11:19:17.129Z,70.14
2023-01-11T11:21:44.914Z,68.26
2023-01-11T11:24:21.409Z,69.08
2023-01-11T11:26:55.894Z,69.96
2023-01-11T11:29:26.330Z,70.11
2023-01-11T11:31:53.423Z,68.96
2023-01-11T11:34:22.242Z,70.79
2023-01-11T11:36:53.030Z,70.69
2023-01-11T11:39:29.715Z,69.03
2023-01-11T11:45:14.619Z,68.84
2023-01-11T11:47:42.464Z,69.05
2023-01-11T11:50:43.265Z,68.95
2023-01-11T11:53:22.380Z,68.97
2023-01-11T11:55:53.001Z,69.57
2023-01-11T11:58:23.980Z,69.55
2023-01-11T12:01:36.901Z,68.47
2023-01-11T12:04:14.207Z,69.02
2023-01-11T12:06:42.928Z,68.32
2023-01-11T12:09:38.178Z,69.09
2023-01-11T12:12:20.792Z,69.06
2023-01-11T12:15:16.119Z,69.34
2023-01-11T12:17:43.959Z,68.10
2023-01-11T12:20:22.688Z,68.49
2023-01-11T12:23:21.609Z,68.56
2023-01-11T12:25:57.472Z,67.44
2023-01-11T12:28:39.568Z,67.45
2023-01-11T12:31:21.094Z,67.92
2023-01-11T12:34:39.357Z,67.82
2023-01-11T12:37:12.255Z,67.78
2023-01-11T12:39:52.188Z,67.84
2023-01-11T12:42:25.464Z,67.91
2023-01-11T12:45:03.549Z,67.87
2023-01-11T12:47:42.325Z,68.78
2023-01-11T12:50:25.585Z,67.65
2023-01-11T12:53:34.879Z,67.01
2023-01-11T12:56:28.048Z,66.58
2023-01-11T12:59:20.547Z,66.95
2023-01-11T13:05:37.549Z,68.54
2023-01-11T13:08:30.863Z,67.90
2023-01-11T13:14:42.888Z,68.52
2023-01-11T13:17:10.281Z,68.03
2023-01-11T13:19:43.915Z,68.18
2023-01-11T13:22:18.014Z,68.35
2023-01-11T13:24:50.888Z,67.98
2023-01-11T13:27:22.295Z,68.00
2023-01-11T13:29:53.898Z,67.96
2023-01-11T13:32:28.361Z,67.28
2023-01-11T13:35:20.046Z,68.32
2023-01-11T13:38:15.688Z,67.93
2023-01-11T13:44:06.430Z,67.58
2023-01-11T13:47:09.579Z,67.22
2023-01-11T13:49:51.015Z,67.28
2023-01-11T13:52:39.340Z,67.12
2023-01-11T13:55:25.105Z,66.93
2023-01-11T13:57:59.604Z,66.77
2023-01-11T14:00:38.225Z,66.20
2023-01-11T14:03:37.721Z,66.57
2023-01-11T14:06:35.211Z,66.87
2023-01-11T14:09:20.638Z,66.62
2023-01-11T14:12:05.666Z,66.68
2023-01-11T14:14:38.474Z,67.18
2023-01-11T14:17:05.151Z,66.93
2023-01-11T14:20:01.515Z,66.18
2023-01-11T14:22:37.463Z,66.87
2023-01-11T14:25:14.159Z,66.49
2023-01-11T14:28:08.613Z,66.90
2023-01-11T14:30:41.216Z,65.77
2023-01-11T14:33:26.586Z,65.52
2023-01-11T14:36:23.934Z,65.15
2023-01-11T14:39:19.667Z,66.15
2023-01-11T14:41:55.415Z,65.80
2023-01-11T14:44:59.612Z,66.50
2023-01-11T14:47:52.343Z,66.04
2023-01-11T14:50:43.521Z,65.69
2023-01-11T14:53:19.138Z,65.96
2023-01-11T14:55:46.387Z,67.11
2023-01-11T15:01:26.008Z,66.73
2023-01-11T15:03:56.141Z,65.75
2023-01-11T15:06:25.021Z,66.28
2023-01-11T15:08:55.849Z,65.67
2023-01-11T15:11:40.276Z,65.59
2023-01-11T15:14:36.815Z,66.54
2023-01-11T15:17:04.940Z,66.40
2023-01-11T15:19:35.591Z,66.42
2023-01-11T15:22:08.955Z,66.59
2023-01-11T15:24:41.820Z,67.74
2023-01-11T15:27:28.058Z,68.16
2023-01-11T15:29:58.034Z,68.79
2023-01-11T15:32:35.065Z,67.91
2023-01-11T15:35:23.243Z,68.56
2023-01-11T15:38:14.322Z,68.29
2023-01-11T15:40:43.309Z,68.45
2023-01-11T15:43:37.887Z,68.14
2023-01-11T15:46:33.832Z,68.44
2023-01-11T15:49:34.929Z,68.31
2023-01-11T15:52:05.244Z,68.93
2023-01-11T15:54:35.435Z,68.74
2023-01-11T15:57:39.027Z,69.64
2023-01-11T16:00:31.980Z,69.61
2023-01-11T16:03:18.768Z,69.31
2023-01-11T16:06:27.107Z,69.35
2023-01-11T16:09:15.405Z,68.81
2023-01-11T16:12:15.799Z,69.17
2023-01-11T16:15:10.623Z,68.48
2023-01-11T16:17:41.393Z,67.27
2023-01-11T16:20:20.187Z,67.85
2023-01-11T16:22:53.611Z,67.90
2023-01-11T16:25:23.460Z,67.56
2023-01-11T16:27:55.915Z,67.29
2023-01-11T16:30:23.130Z,66.76
2023-01-11T16:32:50.218Z,66.93
2023-01-11T16:35:26.050Z,66.19
2023-01-11T16:38:25.931Z,66.58
2023-01-11T16:41:18.747Z,66.96
2023-01-11T16:46:46.641Z,66.40
2023-01-11T16:49:18.381Z,66.80
2023-01-11T16:52:35.056Z,66.82
2023-01-11T16:55:11.029Z,67.17
2023-01-11T16:57:43.948Z,67.39
2023-01-11T17:00:25.528Z,67.51
2023-01-11T17:03:16.516Z,67.32
2023-01-11T17:06:14.956Z,67.38
2023-01-11T17:08:47.912Z,67.38
2023-01-11T17:11:41.732Z,67.27
2023-01-11T17:14:28.047Z,67.72
2023-01-11T17:17:00.192Z,67.56
2023-01-11T17:19:31.276Z,67.73
2023-01-11T17:22:06.469Z,67.63
2023-01-11T17:24:48.102Z,67.34
2023-01-11T17:27:22.576Z,67.60
2023-01-11T17:29:53.890Z,67.78
2023-01-11T17:32:45.597Z,67.82
2023-01-11T17:35:19.055Z,68.29
2023-01-11T17:37:48.623Z,68.37
2023-01-11T17:40:36.858Z,68.55
2023-01-11T17:43:22.603Z,69.21
2023-01-11T17:45:50.478Z,69.40
2023-01-11T17:48:17.441Z,69.77
2023-01-11T17:50:53.571Z,69.97
2023-01-11T17:53:32.467Z,69.72
2023-01-11T17:56:03.864Z,69.62
2023-01-11T17:58:32.854Z,69.07
2023-01-11T18:01:08.979Z,69.90
2023-01-11T18:03:54.506Z,69.47
2023-01-11T18:06:39.936Z,70.18
2023-01-11T18:09:19.591Z,70.20
2023-01-11T18:11:52.594Z,70.50
2023-01-11T18:14:30.348Z,70.85
2023-01-11T18:17:01.276Z,71.15
2023-01-11T18:19:35.608Z,71.21
2023-01-11T18:22:04.946Z,70.96
2023-01-11T18:24:34.338Z,73.84
2023-01-11T18:27:18.080Z,72.64
2023-01-11T18:30:32.977Z,72.98
2023-01-11T18:33:11.901Z,73.27
2023-01-11T18:35:44.356Z,73.41
2023-01-11T18:38:23.317Z,75.08
2023-01-11T18:40:53.475Z,74.49
2023-01-11T18:43:29.426Z,74.94
2023-01-11T18:45:56.804Z,75.16
2023-01-11T18:48:25.504Z,75.13
2023-01-11T18:53:44.712Z,74.35
2023-01-11T18:56:11.675Z,74.84
2023-01-11T18:58:38.988Z,74.76
2023-01-11T19:01:14.088Z,75.75
2023-01-11T19:03:43.671Z,74.13
2023-01-11T19:06:15.704Z,73.56
2023-01-11T19:08:43.382Z,74.95
2023-01-11T19:11:11.872Z,75.11
2023-01-11T19:13:38.987Z,75.34
2023-01-11T19:16:08.560Z,74.91
2023-01-11T19:18:35.835Z,75.46
2023-01-11T19:21:04.834Z,74.33
2023-01-11T19:23:33.055Z,75.34
2023-01-11T19:26:02.806Z,75.25
2023-01-11T19:28:31.644Z,75.30
2023-01-11T19:30:59.003Z,76.35
2023-01-11T19:33:26.326Z,75.95
2023-01-11T19:35:53.688Z,76.71
2023-01-11T19:38:20.754Z,76.31
2023-01-11T19:40:50.444Z,76.68
2023-01-11T19:43:17.933Z,76.62
2023-01-11T19:45:45.359Z,75.89
2023-01-11T19:48:12.255Z,77.01
2023-01-11T19:50:39.237Z,75.87
2023-01-11T19:53:06.225Z,76.92
2023-01-11T19:55:33.040Z,76.54
2023-01-11T19:58:00.503Z,76.82
2023-01-11T20:00:29.743Z,76.23
2023-01-11T20:02:58.449Z,76.47
2023-01-11T20:05:25.428Z,76.94
2023-01-11T20:07:52.357Z,76.71
2023-01-11T20:10:19.532Z,77.35
2023-01-11T20:12:47.860Z,77.34
2023-01-11T20:15:15.550Z,77.32
2023-01-11T20:17:42.810Z,77.28
2023-01-11T20:20:10.855Z,77.89
2023-01-11T20:22:37.807Z,78.09
2023-01-11T20:25:05.676Z,77.89
2023-01-11T20:27:32.944Z,78.48
2023-01-11T20:30:01.694Z,78.52
2023-01-11T20:32:41.057Z,79.01
2023-01-11T20:35:11.939Z,78.51
2023-01-11T20:37:39.370Z,78.79
2023-01-11T20:40:07.387Z,79.01
2023-01-11T20:42:35.606Z,78.67
2023-01-11T20:45:04.523Z,78.15
2023-01-11T20:47:32.564Z,78.49
2023-01-11T20:49:59.480Z,78.62
2023-01-11T20:52:26.655Z,78.17
2023-01-11T20:54:54.076Z,78.72
2023-01-11T20:57:22.009Z,78.47
2023-01-11T20:59:49.449Z,79.03
2023-01-11T21:02:16.185Z,78.82
2023-01-11T21:04:46.891Z,80.14
2023-01-11T21:07:17.447Z,80.57
2023-01-11T21:09:44.356Z,80.73
2023-01-11T21:12:11.400Z,80.86
2023-01-11T21:14:38.110Z,81.22
2023-01-11T21:17:05.924Z,83.40
2023-01-11T21:19:36.340Z,95.47
2023-01-11T21:22:03.202Z,96.08
2023-01-11T21:24:30.429Z,95.13
2023-01-11T21:26:57.594Z,93.30
2023-01-11T21:29:25.381Z,91.46
2023-01-11T21:31:52.376Z,90.84
2023-01-11T21:34:20.897Z,90.73
2023-01-11T21:36:48.513Z,90.43
2023-01-11T21:39:17.015Z,91.33
2023-01-11T21:41:47.966Z,91.17
2023-01-11T21:44:16.445Z,90.63
2023-01-11T21:46:45.003Z,90.41
2023-01-11T21:49:13.911Z,90.19
2023-01-11T21:51:42.009Z,89.97
2023-01-11T21:54:12.859Z,89.92
2023-01-11T21:56:40.308Z,90.07
2023-01-11T21:59:09.012Z,89.32
2023-01-11T22:01:36.063Z,89.73
2023-01-11T22:04:07.623Z,89.32
2023-01-11T22:06:40.094Z,89.83
2023-01-11T22:09:09.616Z,89.85
2023-01-11T22:11:37.867Z,89.66
2023-01-11T22:14:05.726Z,90.62
2023-01-11T22:16:33.528Z,90.75
2023-01-11T22:19:01.681Z,91.04
2023-01-11T22:21:30.898Z,91.46
2023-01-11T22:23:58.890Z,90.98
2023-01-11T22:26:54.981Z,91.04
2023-01-11T22:29:25.386Z,91.18
2023-01-11T22:31:53.563Z,91.28
2023-01-11T22:34:22.364Z,91.54
2023-01-11T22:37:15.050Z,91.69
2023-01-11T22:39:42.787Z,91.69
2023-01-11T22:42:09.559Z,91.97
2023-01-11T22:45:03.095Z,92.55
2023-01-11T22:47:54.983Z,92.59
2023-01-11T22:50:23.151Z,92.85
2023-01-11T22:52:49.932Z,92.58
2023-01-11T22:55:17.327Z,92.88
2023-01-11T22:57:45.954Z,92.75
2023-01-11T23:00:13.356Z,91.95
2023-01-11T23:02:40.208Z,91.79
2023-01-11T23:05:07.958Z,91.50
2023-01-11T23:07:38.373Z,91.40
2023-01-11T23:10:05.534Z,91.13
2023-01-11T23:12:34.049Z,90.05
2023-01-11T23:15:00.824Z,90.75
2023-01-11T23:17:27.649Z,90.45
2023-01-11T23:19:54.660Z,89.87
2023-01-11T23:22:21.459Z,89.94
2023-01-11T23:24:48.294Z,90.64
2023-01-11T23:27:15.368Z,90.35
2023-01-11T23:29:42.959Z,89.64
2023-01-11T23:32:09.852Z,89.49
2023-01-11T23:34:37.909Z,89.48
2023-01-11T23:37:08.330Z,89.06
2023-01-11T23:39:38.961Z,89.05
2023-01-11T23:42:06.371Z,88.70
2023-01-11T23:44:33.535Z,89.43
2023-01-11T23:47:00.405Z,89.27
2023-01-11T23:49:29.562Z,89.43
2023-01-11T23:51:56.907Z,89.58
2023-01-11T23:54:30.913Z,89.29
2023-01-11T23:57:00.143Z,89.36
2023-01-11T23:59:27.120Z,89.50
